sensor_id;sensor_type;location;lat;lon;timestamp;P1;durP1;ratioP1;P2;durP2;ratioP2
40659;SDS011;26753;45.544;9.232;2024-03-02T00:00:21;10.30;;;8.02;;
40659;SDS011;26753;45.544;9.232;2024-03-02T00:02:48;10.77;;;7.93;;
40659;SDS011;26753;45.544;9.232;2024-03-02T00:05:16;9.80;;;7.80;;
40659;SDS011;26753;45.544;9.232;2024-03-02T00:07:44;14.20;;;8.63;;
40659;SDS011;26753;45.544;9.232;2024-03-02T00:10:19;12.55;;;7.80;;
40659;SDS011;26753;45.544;9.232;2024-03-02T00:12:47;12.15;;;8.10;;
40659;SDS011;26753;45.544;9.232;2024-03-02T00:15:24;11.45;;;7.95;;
40659;SDS011;26753;45.544;9.232;2024-03-02T00:20:22;11.43;;;7.85;;
40659;SDS011;26753;45.544;9.232;2024-03-02T00:22:49;11.70;;;8.23;;
40659;SDS011;26753;45.544;9.232;2024-03-02T00:25:15;11.40;;;8.13;;
40659;SDS011;26753;45.544;9.232;2024-03-02T00:27:41;10.90;;;7.82;;
40659;SDS011;26753;45.544;9.232;2024-03-02T00:35:36;11.48;;;7.72;;
40659;SDS011;26753;45.544;9.232;2024-03-02T00:38:05;9.20;;;7.57;;
40659;SDS011;26753;45.544;9.232;2024-03-02T00:40:31;10.68;;;8.18;;
40659;SDS011;26753;45.544;9.232;2024-03-02T00:42:57;10.85;;;8.07;;
40659;SDS011;26753;45.544;9.232;2024-03-02T00:45:24;10.70;;;7.57;;
40659;SDS011;26753;45.544;9.232;2024-03-02T00:47:50;10.60;;;8.10;;
40659;SDS011;26753;45.544;9.232;2024-03-02T00:50:17;10.02;;;8.13;;
40659;SDS011;26753;45.544;9.232;2024-03-02T00:52:43;9.85;;;7.93;;
40659;SDS011;26753;45.544;9.232;2024-03-02T00:55:09;9.65;;;7.30;;
40659;SDS011;26753;45.544;9.232;2024-03-02T00:57:35;10.13;;;7.65;;
40659;SDS011;26753;45.544;9.232;2024-03-02T01:00:01;11.50;;;7.35;;
40659;SDS011;26753;45.544;9.232;2024-03-02T01:02:28;10.00;;;7.53;;
40659;SDS011;26753;45.544;9.232;2024-03-02T01:04:54;10.20;;;7.88;;
40659;SDS011;26753;45.544;9.232;2024-03-02T01:07:20;10.50;;;7.60;;
40659;SDS011;26753;45.544;9.232;2024-03-02T01:09:46;9.23;;;7.55;;
40659;SDS011;26753;45.544;9.232;2024-03-02T01:12:12;11.27;;;7.50;;
40659;SDS011;26753;45.544;9.232;2024-03-02T01:14:37;9.55;;;7.30;;
40659;SDS011;26753;45.544;9.232;2024-03-02T01:17:03;10.23;;;7.63;;
40659;SDS011;26753;45.544;9.232;2024-03-02T01:19:29;10.90;;;7.85;;
40659;SDS011;26753;45.544;9.232;2024-03-02T01:21:55;11.40;;;7.85;;
40659;SDS011;26753;45.544;9.232;2024-03-02T01:24:22;10.07;;;7.72;;
40659;SDS011;26753;45.544;9.232;2024-03-02T01:26:47;11.02;;;7.80;;
40659;SDS011;26753;45.544;9.232;2024-03-02T01:29:13;14.23;;;8.20;;
40659;SDS011;26753;45.544;9.232;2024-03-02T01:31:39;9.32;;;7.57;;
40659;SDS011;26753;45.544;9.232;2024-03-02T01:34:07;11.15;;;7.63;;
40659;SDS011;26753;45.544;9.232;2024-03-02T01:36:33;10.80;;;7.50;;
40659;SDS011;26753;45.544;9.232;2024-03-02T01:38:59;9.02;;;7.30;;
40659;SDS011;26753;45.544;9.232;2024-03-02T01:41:25;9.18;;;7.00;;
40659;SDS011;26753;45.544;9.232;2024-03-02T01:43:51;10.13;;;7.20;;
40659;SDS011;26753;45.544;9.232;2024-03-02T01:46:17;10.63;;;7.30;;
40659;SDS011;26753;45.544;9.232;2024-03-02T01:48:42;10.80;;;7.57;;
40659;SDS011;26753;45.544;9.232;2024-03-02T01:51:08;10.80;;;7.68;;
40659;SDS011;26753;45.544;9.232;2024-03-02T01:53:35;10.65;;;7.20;;
40659;SDS011;26753;45.544;9.232;2024-03-02T01:56:01;9.07;;;7.10;;
40659;SDS011;26753;45.544;9.232;2024-03-02T01:58:27;10.15;;;7.38;;
40659;SDS011;26753;45.544;9.232;2024-03-02T02:00:53;11.00;;;7.13;;
40659;SDS011;26753;45.544;9.232;2024-03-02T02:03:19;8.98;;;6.63;;
40659;SDS011;26753;45.544;9.232;2024-03-02T02:05:44;8.15;;;6.47;;
40659;SDS011;26753;45.544;9.232;2024-03-02T02:08:12;10.65;;;6.60;;
40659;SDS011;26753;45.544;9.232;2024-03-02T02:10:38;9.65;;;7.05;;
40659;SDS011;26753;45.544;9.232;2024-03-02T02:13:04;7.97;;;6.60;;
40659;SDS011;26753;45.544;9.232;2024-03-02T02:15:30;8.90;;;6.43;;
40659;SDS011;26753;45.544;9.232;2024-03-02T02:17:57;8.43;;;6.28;;
40659;SDS011;26753;45.544;9.232;2024-03-02T02:20:23;9.48;;;6.60;;
40659;SDS011;26753;45.544;9.232;2024-03-02T02:22:59;8.23;;;6.22;;
40659;SDS011;26753;45.544;9.232;2024-03-02T02:25:26;9.30;;;6.22;;
40659;SDS011;26753;45.544;9.232;2024-03-02T02:27:52;9.05;;;6.30;;
40659;SDS011;26753;45.544;9.232;2024-03-02T02:30:19;9.57;;;6.32;;
40659;SDS011;26753;45.544;9.232;2024-03-02T02:32:46;11.55;;;8.20;;
40659;SDS011;26753;45.544;9.232;2024-03-02T02:35:12;10.65;;;7.38;;
40659;SDS011;26753;45.544;9.232;2024-03-02T02:37:38;11.18;;;7.28;;
40659;SDS011;26753;45.544;9.232;2024-03-02T02:40:04;9.80;;;7.13;;
40659;SDS011;26753;45.544;9.232;2024-03-02T02:42:30;10.18;;;7.50;;
40659;SDS011;26753;45.544;9.232;2024-03-02T02:44:56;13.02;;;7.93;;
40659;SDS011;26753;45.544;9.232;2024-03-02T02:47:22;9.43;;;7.10;;
40659;SDS011;26753;45.544;9.232;2024-03-02T02:49:47;10.10;;;7.65;;
40659;SDS011;26753;45.544;9.232;2024-03-02T02:52:14;9.20;;;7.07;;
40659;SDS011;26753;45.544;9.232;2024-03-02T02:54:39;13.02;;;7.50;;
40659;SDS011;26753;45.544;9.232;2024-03-02T02:57:05;9.43;;;7.00;;
40659;SDS011;26753;45.544;9.232;2024-03-02T02:59:31;9.73;;;6.78;;
40659;SDS011;26753;45.544;9.232;2024-03-02T03:01:57;9.80;;;7.03;;
40659;SDS011;26753;45.544;9.232;2024-03-02T03:04:23;18.45;;;11.93;;
40659;SDS011;26753;45.544;9.232;2024-03-02T03:06:49;14.10;;;9.23;;
40659;SDS011;26753;45.544;9.232;2024-03-02T03:09:15;13.85;;;8.70;;
40659;SDS011;26753;45.544;9.232;2024-03-02T03:11:41;12.02;;;7.70;;
40659;SDS011;26753;45.544;9.232;2024-03-02T03:14:06;12.48;;;8.02;;
40659;SDS011;26753;45.544;9.232;2024-03-02T03:16:32;10.85;;;7.53;;
40659;SDS011;26753;45.544;9.232;2024-03-02T03:18:58;11.10;;;7.93;;
40659;SDS011;26753;45.544;9.232;2024-03-02T03:21:23;13.25;;;7.07;;
40659;SDS011;26753;45.544;9.232;2024-03-02T03:23:49;10.15;;;7.20;;
40659;SDS011;26753;45.544;9.232;2024-03-02T03:26:15;13.77;;;7.75;;
40659;SDS011;26753;45.544;9.232;2024-03-02T03:28:43;15.00;;;10.30;;
40659;SDS011;26753;45.544;9.232;2024-03-02T03:31:10;16.05;;;10.07;;
40659;SDS011;26753;45.544;9.232;2024-03-02T03:33:36;18.80;;;12.00;;
40659;SDS011;26753;45.544;9.232;2024-03-02T03:36:02;12.60;;;8.40;;
40659;SDS011;26753;45.544;9.232;2024-03-02T03:38:28;10.05;;;7.70;;
40659;SDS011;26753;45.544;9.232;2024-03-02T03:40:55;10.35;;;7.45;;
40659;SDS011;26753;45.544;9.232;2024-03-02T03:43:21;12.35;;;8.75;;
40659;SDS011;26753;45.544;9.232;2024-03-02T03:45:46;10.38;;;7.65;;
40659;SDS011;26753;45.544;9.232;2024-03-02T03:48:12;14.07;;;8.63;;
40659;SDS011;26753;45.544;9.232;2024-03-02T03:50:38;16.65;;;10.15;;
40659;SDS011;26753;45.544;9.232;2024-03-02T03:53:05;19.80;;;11.93;;
40659;SDS011;26753;45.544;9.232;2024-03-02T03:55:30;16.67;;;11.57;;
40659;SDS011;26753;45.544;9.232;2024-03-02T03:57:56;12.45;;;9.13;;
40659;SDS011;26753;45.544;9.232;2024-03-02T04:00:22;14.02;;;10.23;;
40659;SDS011;26753;45.544;9.232;2024-03-02T04:02:48;11.55;;;9.05;;
40659;SDS011;26753;45.544;9.232;2024-03-02T04:05:13;13.57;;;8.50;;
40659;SDS011;26753;45.544;9.232;2024-03-02T04:07:39;12.10;;;9.00;;
40659;SDS011;26753;45.544;9.232;2024-03-02T04:10:09;12.27;;;8.95;;
40659;SDS011;26753;45.544;9.232;2024-03-02T04:12:37;13.48;;;9.45;;
40659;SDS011;26753;45.544;9.232;2024-03-02T04:15:03;11.85;;;9.00;;
40659;SDS011;26753;45.544;9.232;2024-03-02T04:17:31;12.82;;;9.23;;
40659;SDS011;26753;45.544;9.232;2024-03-02T04:19:58;13.63;;;8.93;;
40659;SDS011;26753;45.544;9.232;2024-03-02T04:22:24;10.65;;;8.82;;
40659;SDS011;26753;45.544;9.232;2024-03-02T04:24:51;13.48;;;9.05;;
40659;SDS011;26753;45.544;9.232;2024-03-02T04:27:16;11.02;;;8.30;;
40659;SDS011;26753;45.544;9.232;2024-03-02T04:29:42;13.98;;;9.45;;
40659;SDS011;26753;45.544;9.232;2024-03-02T04:32:08;15.40;;;10.40;;
40659;SDS011;26753;45.544;9.232;2024-03-02T04:34:33;14.40;;;10.55;;
40659;SDS011;26753;45.544;9.232;2024-03-02T04:36:59;18.00;;;12.80;;
40659;SDS011;26753;45.544;9.232;2024-03-02T04:39:25;10.93;;;7.90;;
40659;SDS011;26753;45.544;9.232;2024-03-02T04:41:51;13.30;;;9.40;;
40659;SDS011;26753;45.544;9.232;2024-03-02T04:44:17;12.25;;;9.13;;
40659;SDS011;26753;45.544;9.232;2024-03-02T04:46:43;13.07;;;10.00;;
40659;SDS011;26753;45.544;9.232;2024-03-02T04:49:09;14.18;;;9.30;;
40659;SDS011;26753;45.544;9.232;2024-03-02T04:51:35;15.10;;;10.07;;
40659;SDS011;26753;45.544;9.232;2024-03-02T04:54:00;12.60;;;8.98;;
40659;SDS011;26753;45.544;9.232;2024-03-02T04:56:26;12.85;;;9.75;;
40659;SDS011;26753;45.544;9.232;2024-03-02T04:59:05;10.90;;;8.73;;
40659;SDS011;26753;45.544;9.232;2024-03-02T05:01:33;12.50;;;9.52;;
40659;SDS011;26753;45.544;9.232;2024-03-02T05:03:59;14.00;;;9.30;;
40659;SDS011;26753;45.544;9.232;2024-03-02T05:06:25;12.85;;;9.15;;
40659;SDS011;26753;45.544;9.232;2024-03-02T05:08:50;14.15;;;9.38;;
40659;SDS011;26753;45.544;9.232;2024-03-02T05:11:16;12.10;;;9.30;;
40659;SDS011;26753;45.544;9.232;2024-03-02T05:14:04;13.65;;;9.57;;
40659;SDS011;26753;45.544;9.232;2024-03-02T05:16:33;15.02;;;9.02;;
40659;SDS011;26753;45.544;9.232;2024-03-02T05:19:03;13.27;;;9.15;;
40659;SDS011;26753;45.544;9.232;2024-03-02T05:21:31;12.85;;;9.20;;
40659;SDS011;26753;45.544;9.232;2024-03-02T05:23:57;15.05;;;9.20;;
40659;SDS011;26753;45.544;9.232;2024-03-02T05:26:23;12.40;;;8.48;;
40659;SDS011;26753;45.544;9.232;2024-03-02T05:28:49;12.93;;;8.82;;
40659;SDS011;26753;45.544;9.232;2024-03-02T05:31:17;13.90;;;9.32;;
40659;SDS011;26753;45.544;9.232;2024-03-02T05:33:43;13.75;;;9.82;;
40659;SDS011;26753;45.544;9.232;2024-03-02T05:36:09;11.95;;;9.05;;
40659;SDS011;26753;45.544;9.232;2024-03-02T05:38:35;13.00;;;9.35;;
40659;SDS011;26753;45.544;9.232;2024-03-02T05:41:00;15.02;;;9.82;;
40659;SDS011;26753;45.544;9.232;2024-03-02T05:43:26;13.43;;;9.15;;
40659;SDS011;26753;45.544;9.232;2024-03-02T05:45:52;18.17;;;10.40;;
40659;SDS011;26753;45.544;9.232;2024-03-02T05:48:18;14.48;;;9.50;;
40659;SDS011;26753;45.544;9.232;2024-03-02T05:50:43;15.98;;;9.98;;
40659;SDS011;26753;45.544;9.232;2024-03-02T05:53:09;14.48;;;9.82;;
40659;SDS011;26753;45.544;9.232;2024-03-02T05:55:34;16.77;;;9.98;;
40659;SDS011;26753;45.544;9.232;2024-03-02T05:58:00;13.02;;;10.02;;
40659;SDS011;26753;45.544;9.232;2024-03-02T06:00:45;15.23;;;10.13;;
40659;SDS011;26753;45.544;9.232;2024-03-02T06:03:11;16.67;;;10.13;;
40659;SDS011;26753;45.544;9.232;2024-03-02T06:05:37;14.80;;;10.55;;
40659;SDS011;26753;45.544;9.232;2024-03-02T06:08:02;16.52;;;10.40;;
40659;SDS011;26753;45.544;9.232;2024-03-02T06:10:28;15.10;;;11.10;;
40659;SDS011;26753;45.544;9.232;2024-03-02T06:12:54;17.17;;;11.07;;
40659;SDS011;26753;45.544;9.232;2024-03-02T06:15:20;15.18;;;10.55;;
40659;SDS011;26753;45.544;9.232;2024-03-02T06:17:45;16.38;;;11.18;;
40659;SDS011;26753;45.544;9.232;2024-03-02T06:20:11;17.85;;;11.50;;
40659;SDS011;26753;45.544;9.232;2024-03-02T06:22:37;19.83;;;11.07;;
40659;SDS011;26753;45.544;9.232;2024-03-02T06:25:03;17.30;;;11.30;;
40659;SDS011;26753;45.544;9.232;2024-03-02T06:27:29;13.32;;;10.13;;
40659;SDS011;26753;45.544;9.232;2024-03-02T06:29:54;16.02;;;9.82;;
40659;SDS011;26753;45.544;9.232;2024-03-02T06:32:20;14.43;;;9.43;;
40659;SDS011;26753;45.544;9.232;2024-03-02T06:34:46;12.82;;;9.45;;
40659;SDS011;26753;45.544;9.232;2024-03-02T06:37:11;13.70;;;9.38;;
40659;SDS011;26753;45.544;9.232;2024-03-02T06:39:38;14.57;;;9.73;;
40659;SDS011;26753;45.544;9.232;2024-03-02T06:42:04;13.75;;;9.15;;
40659;SDS011;26753;45.544;9.232;2024-03-02T06:44:29;12.85;;;9.80;;
40659;SDS011;26753;45.544;9.232;2024-03-02T06:46:56;13.60;;;9.60;;
40659;SDS011;26753;45.544;9.232;2024-03-02T06:49:21;14.50;;;10.60;;
40659;SDS011;26753;45.544;9.232;2024-03-02T06:51:47;15.45;;;10.25;;
40659;SDS011;26753;45.544;9.232;2024-03-02T06:54:13;12.70;;;10.20;;
40659;SDS011;26753;45.544;9.232;2024-03-02T06:56:39;15.63;;;10.90;;
40659;SDS011;26753;45.544;9.232;2024-03-02T06:59:04;13.20;;;10.45;;
40659;SDS011;26753;45.544;9.232;2024-03-02T07:01:30;18.42;;;11.07;;
40659;SDS011;26753;45.544;9.232;2024-03-02T07:03:55;13.93;;;10.70;;
40659;SDS011;26753;45.544;9.232;2024-03-02T07:06:22;15.52;;;9.95;;
40659;SDS011;26753;45.544;9.232;2024-03-02T07:08:47;10.85;;;9.27;;
40659;SDS011;26753;45.544;9.232;2024-03-02T07:11:13;12.43;;;9.05;;
40659;SDS011;26753;45.544;9.232;2024-03-02T07:13:39;10.95;;;8.60;;
40659;SDS011;26753;45.544;9.232;2024-03-02T07:16:05;10.85;;;8.00;;
40659;SDS011;26753;45.544;9.232;2024-03-02T07:18:46;14.10;;;8.45;;
40659;SDS011;26753;45.544;9.232;2024-03-02T07:21:17;11.15;;;8.90;;
40659;SDS011;26753;45.544;9.232;2024-03-02T07:23:43;10.75;;;8.35;;
40659;SDS011;26753;45.544;9.232;2024-03-02T07:26:09;11.85;;;9.43;;
40659;SDS011;26753;45.544;9.232;2024-03-02T07:28:35;14.77;;;9.00;;
40659;SDS011;26753;45.544;9.232;2024-03-02T07:31:01;12.48;;;8.95;;
40659;SDS011;26753;45.544;9.232;2024-03-02T07:33:29;14.98;;;9.32;;
40659;SDS011;26753;45.544;9.232;2024-03-02T07:35:58;15.85;;;8.90;;
40659;SDS011;26753;45.544;9.232;2024-03-02T07:38:25;12.07;;;8.60;;
40659;SDS011;26753;45.544;9.232;2024-03-02T07:40:52;11.32;;;8.82;;
40659;SDS011;26753;45.544;9.232;2024-03-02T07:43:20;11.55;;;8.02;;
40659;SDS011;26753;45.544;9.232;2024-03-02T07:45:47;13.15;;;9.00;;
40659;SDS011;26753;45.544;9.232;2024-03-02T07:48:13;12.40;;;8.07;;
40659;SDS011;26753;45.544;9.232;2024-03-02T07:50:39;11.68;;;8.00;;
40659;SDS011;26753;45.544;9.232;2024-03-02T07:53:05;12.45;;;7.95;;
40659;SDS011;26753;45.544;9.232;2024-03-02T07:55:31;14.57;;;7.75;;
40659;SDS011;26753;45.544;9.232;2024-03-02T07:57:57;12.85;;;7.65;;
40659;SDS011;26753;45.544;9.232;2024-03-02T08:00:23;10.40;;;7.22;;
40659;SDS011;26753;45.544;9.232;2024-03-02T08:02:49;16.05;;;9.43;;
40659;SDS011;26753;45.544;9.232;2024-03-02T08:05:18;14.07;;;8.70;;
40659;SDS011;26753;45.544;9.232;2024-03-02T08:07:44;13.93;;;9.07;;
40659;SDS011;26753;45.544;9.232;2024-03-02T08:10:11;15.27;;;9.10;;
40659;SDS011;26753;45.544;9.232;2024-03-02T08:12:37;13.57;;;7.63;;
40659;SDS011;26753;45.544;9.232;2024-03-02T08:15:03;17.38;;;8.05;;
40659;SDS011;26753;45.544;9.232;2024-03-02T08:17:29;15.05;;;6.85;;
40659;SDS011;26753;45.544;9.232;2024-03-02T08:19:55;11.65;;;7.00;;
40659;SDS011;26753;45.544;9.232;2024-03-02T08:22:22;10.60;;;6.57;;
40659;SDS011;26753;45.544;9.232;2024-03-02T08:24:50;13.25;;;6.43;;
40659;SDS011;26753;45.544;9.232;2024-03-02T08:27:16;11.50;;;6.65;;
40659;SDS011;26753;45.544;9.232;2024-03-02T08:29:42;11.00;;;6.38;;
40659;SDS011;26753;45.544;9.232;2024-03-02T08:32:08;13.73;;;5.97;;
40659;SDS011;26753;45.544;9.232;2024-03-02T08:34:33;13.38;;;6.13;;
40659;SDS011;26753;45.544;9.232;2024-03-02T08:37:00;10.77;;;5.18;;
40659;SDS011;26753;45.544;9.232;2024-03-02T08:39:27;12.95;;;5.32;;
40659;SDS011;26753;45.544;9.232;2024-03-02T08:41:53;9.73;;;4.95;;
40659;SDS011;26753;45.544;9.232;2024-03-02T08:44:19;12.07;;;5.15;;
40659;SDS011;26753;45.544;9.232;2024-03-02T08:46:45;9.57;;;4.40;;
40659;SDS011;26753;45.544;9.232;2024-03-02T08:49:10;9.63;;;4.47;;
40659;SDS011;26753;45.544;9.232;2024-03-02T08:51:37;8.27;;;4.80;;
40659;SDS011;26753;45.544;9.232;2024-03-02T08:54:03;10.38;;;4.80;;
40659;SDS011;26753;45.544;9.232;2024-03-02T08:56:29;11.60;;;5.07;;
40659;SDS011;26753;45.544;9.232;2024-03-02T08:58:56;12.07;;;4.82;;
40659;SDS011;26753;45.544;9.232;2024-03-02T09:01:22;12.00;;;4.70;;
40659;SDS011;26753;45.544;9.232;2024-03-02T09:03:48;9.32;;;4.50;;
40659;SDS011;26753;45.544;9.232;2024-03-02T09:06:16;10.48;;;4.50;;
40659;SDS011;26753;45.544;9.232;2024-03-02T09:08:43;9.38;;;4.88;;
40659;SDS011;26753;45.544;9.232;2024-03-02T09:11:09;8.32;;;4.60;;
40659;SDS011;26753;45.544;9.232;2024-03-02T09:13:36;8.63;;;4.25;;
40659;SDS011;26753;45.544;9.232;2024-03-02T09:16:02;13.50;;;4.65;;
40659;SDS011;26753;45.544;9.232;2024-03-02T09:18:29;13.25;;;4.57;;
40659;SDS011;26753;45.544;9.232;2024-03-02T09:20:54;9.55;;;4.50;;
40659;SDS011;26753;45.544;9.232;2024-03-02T09:23:20;10.10;;;4.35;;
40659;SDS011;26753;45.544;9.232;2024-03-02T09:25:46;9.52;;;4.60;;
40659;SDS011;26753;45.544;9.232;2024-03-02T09:28:12;8.45;;;4.25;;
40659;SDS011;26753;45.544;9.232;2024-03-02T09:30:38;11.30;;;4.80;;
40659;SDS011;26753;45.544;9.232;2024-03-02T09:33:04;9.25;;;4.60;;
40659;SDS011;26753;45.544;9.232;2024-03-02T09:35:30;11.57;;;4.78;;
40659;SDS011;26753;45.544;9.232;2024-03-02T09:37:56;12.82;;;5.00;;
40659;SDS011;26753;45.544;9.232;2024-03-02T09:40:22;11.02;;;4.50;;
40659;SDS011;26753;45.544;9.232;2024-03-02T09:42:48;11.48;;;4.50;;
40659;SDS011;26753;45.544;9.232;2024-03-02T09:45:19;8.90;;;5.28;;
40659;SDS011;26753;45.544;9.232;2024-03-02T09:47:48;9.45;;;4.25;;
40659;SDS011;26753;45.544;9.232;2024-03-02T09:50:14;7.70;;;3.95;;
40659;SDS011;26753;45.544;9.232;2024-03-02T09:52:40;5.93;;;3.25;;
40659;SDS011;26753;45.544;9.232;2024-03-02T09:55:08;7.35;;;3.95;;
40659;SDS011;26753;45.544;9.232;2024-03-02T09:57:34;11.27;;;3.83;;
40659;SDS011;26753;45.544;9.232;2024-03-02T10:00:00;4.80;;;3.30;;
40659;SDS011;26753;45.544;9.232;2024-03-02T10:02:25;9.60;;;4.35;;
40659;SDS011;26753;45.544;9.232;2024-03-02T10:04:51;6.68;;;3.45;;
40659;SDS011;26753;45.544;9.232;2024-03-02T10:07:18;9.85;;;3.50;;
40659;SDS011;26753;45.544;9.232;2024-03-02T10:09:44;8.23;;;3.70;;
40659;SDS011;26753;45.544;9.232;2024-03-02T10:12:12;8.35;;;3.67;;
40659;SDS011;26753;45.544;9.232;2024-03-02T10:14:38;7.00;;;3.70;;
40659;SDS011;26753;45.544;9.232;2024-03-02T10:17:05;6.70;;;3.40;;
40659;SDS011;26753;45.544;9.232;2024-03-02T10:19:32;7.20;;;3.97;;
40659;SDS011;26753;45.544;9.232;2024-03-02T10:22:00;8.05;;;3.90;;
40659;SDS011;26753;45.544;9.232;2024-03-02T10:24:27;11.52;;;5.05;;
40659;SDS011;26753;45.544;9.232;2024-03-02T10:27:10;33.75;;;12.73;;
40659;SDS011;26753;45.544;9.232;2024-03-02T10:32:03;11.73;;;5.40;;
40659;SDS011;26753;45.544;9.232;2024-03-02T10:34:31;10.45;;;4.38;;
40659;SDS011;26753;45.544;9.232;2024-03-02T10:36:57;15.90;;;5.93;;
40659;SDS011;26753;45.544;9.232;2024-03-02T10:39:23;10.98;;;4.20;;
40659;SDS011;26753;45.544;9.232;2024-03-02T10:41:49;7.95;;;4.13;;
40659;SDS011;26753;45.544;9.232;2024-03-02T10:44:18;7.53;;;3.67;;
40659;SDS011;26753;45.544;9.232;2024-03-02T10:46:44;6.97;;;3.65;;
40659;SDS011;26753;45.544;9.232;2024-03-02T10:49:11;7.13;;;4.00;;
40659;SDS011;26753;45.544;9.232;2024-03-02T10:51:37;7.80;;;3.90;;
40659;SDS011;26753;45.544;9.232;2024-03-02T10:54:02;10.55;;;4.35;;
40659;SDS011;26753;45.544;9.232;2024-03-02T11:01:56;9.95;;;3.85;;
40659;SDS011;26753;45.544;9.232;2024-03-02T11:04:26;6.20;;;3.72;;
40659;SDS011;26753;45.544;9.232;2024-03-02T11:07:03;8.23;;;4.40;;
40659;SDS011;26753;45.544;9.232;2024-03-02T11:09:35;7.88;;;4.60;;
40659;SDS011;26753;45.544;9.232;2024-03-02T11:12:22;8.02;;;4.22;;
40659;SDS011;26753;45.544;9.232;2024-03-02T11:14:53;10.05;;;3.95;;
40659;SDS011;26753;45.544;9.232;2024-03-02T11:17:21;10.05;;;4.80;;
40659;SDS011;26753;45.544;9.232;2024-03-02T11:19:47;8.93;;;4.80;;
40659;SDS011;26753;45.544;9.232;2024-03-02T11:22:14;12.00;;;4.60;;
40659;SDS011;26753;45.544;9.232;2024-03-02T11:24:50;13.73;;;6.45;;
40659;SDS011;26753;45.544;9.232;2024-03-02T11:30:02;9.43;;;3.97;;
40659;SDS011;26753;45.544;9.232;2024-03-02T11:32:28;8.50;;;4.00;;
40659;SDS011;26753;45.544;9.232;2024-03-02T11:34:54;9.65;;;4.50;;
40659;SDS011;26753;45.544;9.232;2024-03-02T11:37:23;8.57;;;4.10;;
40659;SDS011;26753;45.544;9.232;2024-03-02T11:39:50;7.88;;;4.45;;
40659;SDS011;26753;45.544;9.232;2024-03-02T11:42:16;6.68;;;3.90;;
40659;SDS011;26753;45.544;9.232;2024-03-02T11:44:46;6.82;;;3.80;;
40659;SDS011;26753;45.544;9.232;2024-03-02T11:47:14;9.15;;;3.85;;
40659;SDS011;26753;45.544;9.232;2024-03-02T11:49:45;8.68;;;4.10;;
40659;SDS011;26753;45.544;9.232;2024-03-02T11:52:13;10.43;;;4.00;;
40659;SDS011;26753;45.544;9.232;2024-03-02T11:54:41;8.77;;;4.28;;
40659;SDS011;26753;45.544;9.232;2024-03-02T11:57:17;7.75;;;4.30;;
40659;SDS011;26753;45.544;9.232;2024-03-02T11:59:44;9.05;;;4.20;;
40659;SDS011;26753;45.544;9.232;2024-03-02T12:02:14;10.55;;;5.00;;
40659;SDS011;26753;45.544;9.232;2024-03-02T12:04:42;17.42;;;6.75;;
40659;SDS011;26753;45.544;9.232;2024-03-02T12:07:08;15.40;;;6.35;;
40659;SDS011;26753;45.544;9.232;2024-03-02T12:09:34;13.40;;;6.03;;
40659;SDS011;26753;45.544;9.232;2024-03-02T12:12:09;9.48;;;4.95;;
40659;SDS011;26753;45.544;9.232;2024-03-02T12:14:36;8.32;;;5.55;;
40659;SDS011;26753;45.544;9.232;2024-03-02T12:17:03;9.93;;;5.70;;
40659;SDS011;26753;45.544;9.232;2024-03-02T12:19:30;9.30;;;5.80;;
40659;SDS011;26753;45.544;9.232;2024-03-02T12:21:56;7.18;;;5.00;;
40659;SDS011;26753;45.544;9.232;2024-03-02T12:24:23;10.02;;;6.22;;
40659;SDS011;26753;45.544;9.232;2024-03-02T12:26:50;7.68;;;4.97;;
40659;SDS011;26753;45.544;9.232;2024-03-02T12:29:16;7.40;;;5.68;;
40659;SDS011;26753;45.544;9.232;2024-03-02T12:31:44;13.88;;;8.30;;
40659;SDS011;26753;45.544;9.232;2024-03-02T12:34:14;8.82;;;6.18;;
40659;SDS011;26753;45.544;9.232;2024-03-02T12:36:41;7.38;;;5.55;;
40659;SDS011;26753;45.544;9.232;2024-03-02T12:39:10;7.45;;;5.70;;
40659;SDS011;26753;45.544;9.232;2024-03-02T12:41:36;7.57;;;5.60;;
40659;SDS011;26753;45.544;9.232;2024-03-02T12:44:05;9.73;;;6.18;;
40659;SDS011;26753;45.544;9.232;2024-03-02T12:46:31;7.60;;;5.85;;
40659;SDS011;26753;45.544;9.232;2024-03-02T12:48:58;12.13;;;6.80;;
40659;SDS011;26753;45.544;9.232;2024-03-02T12:51:30;14.02;;;8.38;;
40659;SDS011;26753;45.544;9.232;2024-03-02T12:53:56;8.45;;;6.47;;
40659;SDS011;26753;45.544;9.232;2024-03-02T12:56:23;9.82;;;6.40;;
40659;SDS011;26753;45.544;9.232;2024-03-02T12:58:53;6.65;;;5.57;;
40659;SDS011;26753;45.544;9.232;2024-03-02T13:01:20;7.78;;;5.10;;
40659;SDS011;26753;45.544;9.232;2024-03-02T13:03:48;9.02;;;6.22;;
40659;SDS011;26753;45.544;9.232;2024-03-02T13:06:16;11.07;;;6.20;;
40659;SDS011;26753;45.544;9.232;2024-03-02T13:08:42;7.78;;;5.10;;
40659;SDS011;26753;45.544;9.232;2024-03-02T13:11:09;7.53;;;4.80;;
40659;SDS011;26753;45.544;9.232;2024-03-02T13:13:35;8.30;;;5.80;;
40659;SDS011;26753;45.544;9.232;2024-03-02T13:16:01;8.10;;;5.78;;
40659;SDS011;26753;45.544;9.232;2024-03-02T13:18:28;8.85;;;5.43;;
40659;SDS011;26753;45.544;9.232;2024-03-02T13:20:54;16.92;;;9.10;;
40659;SDS011;26753;45.544;9.232;2024-03-02T13:23:21;6.43;;;4.68;;
40659;SDS011;26753;45.544;9.232;2024-03-02T13:25:46;5.13;;;4.00;;
40659;SDS011;26753;45.544;9.232;2024-03-02T13:28:12;5.78;;;4.65;;
40659;SDS011;26753;45.544;9.232;2024-03-02T13:30:38;5.35;;;4.28;;
40659;SDS011;26753;45.544;9.232;2024-03-02T13:33:04;6.70;;;4.28;;
40659;SDS011;26753;45.544;9.232;2024-03-02T13:35:29;5.07;;;4.10;;
40659;SDS011;26753;45.544;9.232;2024-03-02T13:37:55;6.90;;;4.75;;
40659;SDS011;26753;45.544;9.232;2024-03-02T13:40:21;6.50;;;4.45;;
40659;SDS011;26753;45.544;9.232;2024-03-02T13:42:48;9.38;;;6.40;;
40659;SDS011;26753;45.544;9.232;2024-03-02T13:45:17;14.90;;;10.20;;
40659;SDS011;26753;45.544;9.232;2024-03-02T13:47:43;9.93;;;6.90;;
40659;SDS011;26753;45.544;9.232;2024-03-02T13:50:09;8.60;;;6.35;;
40659;SDS011;26753;45.544;9.232;2024-03-02T13:52:35;8.35;;;6.68;;
40659;SDS011;26753;45.544;9.232;2024-03-02T13:55:01;8.13;;;6.30;;
40659;SDS011;26753;45.544;9.232;2024-03-02T13:57:27;8.77;;;6.53;;
40659;SDS011;26753;45.544;9.232;2024-03-02T13:59:53;11.25;;;7.43;;
40659;SDS011;26753;45.544;9.232;2024-03-02T14:02:19;9.10;;;6.85;;
40659;SDS011;26753;45.544;9.232;2024-03-02T14:04:45;8.95;;;6.50;;
40659;SDS011;26753;45.544;9.232;2024-03-02T14:07:13;8.35;;;7.00;;
40659;SDS011;26753;45.544;9.232;2024-03-02T14:09:39;7.53;;;6.57;;
40659;SDS011;26753;45.544;9.232;2024-03-02T14:12:05;9.05;;;6.85;;
40659;SDS011;26753;45.544;9.232;2024-03-02T14:14:31;11.30;;;7.55;;
40659;SDS011;26753;45.544;9.232;2024-03-02T14:16:57;8.55;;;7.32;;
40659;SDS011;26753;45.544;9.232;2024-03-02T14:19:29;10.50;;;8.23;;
40659;SDS011;26753;45.544;9.232;2024-03-02T14:21:55;9.68;;;8.07;;
40659;SDS011;26753;45.544;9.232;2024-03-02T14:24:21;9.82;;;7.68;;
40659;SDS011;26753;45.544;9.232;2024-03-02T14:26:51;10.98;;;7.60;;
40659;SDS011;26753;45.544;9.232;2024-03-02T14:29:18;10.18;;;7.05;;
40659;SDS011;26753;45.544;9.232;2024-03-02T14:31:43;8.57;;;7.18;;
40659;SDS011;26753;45.544;9.232;2024-03-02T14:34:13;9.52;;;7.07;;
40659;SDS011;26753;45.544;9.232;2024-03-02T14:36:41;9.52;;;7.07;;
40659;SDS011;26753;45.544;9.232;2024-03-02T14:39:09;8.60;;;7.18;;
40659;SDS011;26753;45.544;9.232;2024-03-02T14:41:36;9.55;;;6.07;;
40659;SDS011;26753;45.544;9.232;2024-03-02T14:44:02;8.20;;;5.88;;
40659;SDS011;26753;45.544;9.232;2024-03-02T14:46:28;7.63;;;5.88;;
40659;SDS011;26753;45.544;9.232;2024-03-02T14:48:54;6.22;;;5.40;;
40659;SDS011;26753;45.544;9.232;2024-03-02T14:51:20;6.80;;;5.07;;
40659;SDS011;26753;45.544;9.232;2024-03-02T14:53:45;6.90;;;5.10;;